sensor_id;sensor_type;location;lat;lon;timestamp;pressure;altitude;pressure_sealevel;temperature;humidity
49945;BME280;35838;49.134;9.212;2023-03-03T02:35:31;100135.56;;;2.53;71.15
49945;BME280;35838;49.134;9.212;2023-03-03T02:37:05;100131.06;;;2.46;71.36
49945;BME280;35838;49.134;9.212;2023-03-03T02:38:40;100133.81;;;2.52;71.56
49945;BME280;35838;49.134;9.212;2023-03-03T02:40:16;100128.88;;;2.58;71.21
49945;BME280;35838;49.134;9.212;2023-03-03T02:41:51;100132.09;;;2.53;71.54
49945;BME280;35838;49.134;9.212;2023-03-03T02:43:28;100138.97;;;2.54;71.53
49945;BME280;35838;49.134;9.212;2023-03-03T02:45:01;100144.22;;;2.57;71.52
49945;BME280;35838;49.134;9.212;2023-03-03T02:46:35;100145.88;;;2.56;71.50
49945;BME280;35838;49.134;9.212;2023-03-03T02:48:09;100136.78;;;2.64;71.29
49945;BME280;35838;49.134;9.212;2023-03-03T02:49:43;100140.81;;;2.58;71.23
49945;BME280;35838;49.134;9.212;2023-03-03T02:51:19;100132.03;;;2.49;71.42
49945;BME280;35838;49.134;9.212;2023-03-03T02:52:50;100140.38;;;2.44;71.49
49945;BME280;35838;49.134;9.212;2023-03-03T02:54:25;100141.31;;;2.46;71.40
49945;BME280;35838;49.134;9.212;2023-03-03T02:55:59;100135.09;;;2.39;71.52
49945;BME280;35838;49.134;9.212;2023-03-03T02:57:34;100135.41;;;2.48;71.30
49945;BME280;35838;49.134;9.212;2023-03-03T02:59:07;100143.16;;;2.51;71.32
49945;BME280;35838;49.134;9.212;2023-03-03T03:00:41;100140.53;;;2.48;71.36
49945;BME280;35838;49.134;9.212;2023-03-03T03:02:12;100142.16;;;2.46;71.47
49945;BME280;35838;49.134;9.212;2023-03-03T03:03:45;100143.09;;;2.48;71.32
49945;BME280;35838;49.134;9.212;2023-03-03T03:05:16;100147.19;;;2.43;71.30
49945;BME280;35838;49.134;9.212;2023-03-03T03:06:53;100137.03;;;2.46;71.24
49945;BME280;35838;49.134;9.212;2023-03-03T03:08:27;100137.97;;;2.48;71.05
49945;BME280;35838;49.134;9.212;2023-03-03T03:09:58;100140.19;;;2.38;71.42
49945;BME280;35838;49.134;9.212;2023-03-03T03:11:32;100139.81;;;2.27;71.96
49945;BME280;35838;49.134;9.212;2023-03-03T03:13:05;100144.53;;;2.14;72.53
49945;BME280;35838;49.134;9.212;2023-03-03T03:14:39;100145.66;;;2.23;72.48
49945;BME280;35838;49.134;9.212;2023-03-03T03:16:13;100143.88;;;2.20;72.41
49945;BME280;35838;49.134;9.212;2023-03-03T03:17:46;100144.13;;;2.28;72.52
49945;BME280;35838;49.134;9.212;2023-03-03T03:19:17;100138.78;;;2.22;72.76
49945;BME280;35838;49.134;9.212;2023-03-03T03:20:51;100146.78;;;2.05;74.12
49945;BME280;35838;49.134;9.212;2023-03-03T03:22:24;100144.53;;;2.14;74.41
49945;BME280;35838;49.134;9.212;2023-03-03T03:23:58;100153.13;;;2.16;74.03
49945;BME280;35838;49.134;9.212;2023-03-03T03:25:32;100154.78;;;2.14;73.72
49945;BME280;35838;49.134;9.212;2023-03-03T03:27:12;100151.94;;;2.07;74.12
49945;BME280;35838;49.134;9.212;2023-03-03T03:28:45;100149.34;;;2.05;74.20
49945;BME280;35838;49.134;9.212;2023-03-03T03:30:19;100152.16;;;2.13;74.00
49945;BME280;35838;49.134;9.212;2023-03-03T03:31:50;100158.34;;;2.19;73.84
49945;BME280;35838;49.134;9.212;2023-03-03T03:33:23;100157.50;;;2.19;73.26
49945;BME280;35838;49.134;9.212;2023-03-03T03:34:57;100156.28;;;2.09;73.40
49945;BME280;35838;49.134;9.212;2023-03-03T03:36:31;100151.50;;;1.94;73.83
49945;BME280;35838;49.134;9.212;2023-03-03T03:38:07;100157.19;;;1.85;74.27
49945;BME280;35838;49.134;9.212;2023-03-03T03:39:38;100146.22;;;1.90;74.34
49945;BME280;35838;49.134;9.212;2023-03-03T03:41:12;100151.47;;;1.93;74.11
49945;BME280;35838;49.134;9.212;2023-03-03T03:42:45;100156.75;;;1.97;73.94
49945;BME280;35838;49.134;9.212;2023-03-03T03:44:19;100148.50;;;1.80;74.30
49945;BME280;35838;49.134;9.212;2023-03-03T03:45:53;100154.75;;;1.88;74.13
49945;BME280;35838;49.134;9.212;2023-03-03T03:47:27;100152.59;;;2.01;74.10
49945;BME280;35838;49.134;9.212;2023-03-03T03:49:00;100151.09;;;2.06;73.64
49945;BME280;35838;49.134;9.212;2023-03-03T03:50:34;100153.97;;;2.15;73.32
49945;BME280;35838;49.134;9.212;2023-03-03T03:52:05;100156.72;;;2.22;72.90
49945;BME280;35838;49.134;9.212;2023-03-03T03:53:41;100156.53;;;2.15;72.87
49945;BME280;35838;49.134;9.212;2023-03-03T03:55:15;100154.78;;;2.14;72.91
49945;BME280;35838;49.134;9.212;2023-03-03T03:56:46;100163.16;;;2.10;72.86
49945;BME280;35838;49.134;9.212;2023-03-03T03:58:20;100170.03;;;2.11;72.77
49945;BME280;35838;49.134;9.212;2023-03-03T03:59:53;100165.69;;;2.09;72.46
49945;BME280;35838;49.134;9.212;2023-03-03T04:01:27;100164.78;;;2.08;72.29
49945;BME280;35838;49.134;9.212;2023-03-03T04:03:01;100168.09;;;2.04;72.46
49945;BME280;35838;49.134;9.212;2023-03-03T04:04:34;100164.59;;;2.02;72.58
49945;BME280;35838;49.134;9.212;2023-03-03T04:06:08;100158.63;;;2.01;72.63
49945;BME280;35838;49.134;9.212;2023-03-03T04:07:41;100170.47;;;1.99;72.71
49945;BME280;35838;49.134;9.212;2023-03-03T04:09:18;100164.16;;;1.90;72.88
49945;BME280;35838;49.134;9.212;2023-03-03T04:10:51;100170.16;;;1.90;72.74
49945;BME280;35838;49.134;9.212;2023-03-03T04:12:25;100170.00;;;1.85;72.73
49945;BME280;35838;49.134;9.212;2023-03-03T04:13:58;100167.22;;;1.79;73.37
49945;BME280;35838;49.134;9.212;2023-03-03T04:15:32;100174.00;;;1.79;73.60
49945;BME280;35838;49.134;9.212;2023-03-03T04:17:06;100170.34;;;1.72;74.02
49945;BME280;35838;49.134;9.212;2023-03-03T04:18:40;100173.03;;;1.75;74.48
49945;BME280;35838;49.134;9.212;2023-03-03T04:20:14;100172.22;;;1.76;74.49
49945;BME280;35838;49.134;9.212;2023-03-03T04:21:48;100173.25;;;1.81;74.53
49945;BME280;35838;49.134;9.212;2023-03-03T04:23:22;100173.16;;;1.78;74.65
49945;BME280;35838;49.134;9.212;2023-03-03T04:24:58;100176.81;;;1.85;74.47
49945;BME280;35838;49.134;9.212;2023-03-03T04:26:34;100177.72;;;1.87;74.52
49945;BME280;35838;49.134;9.212;2023-03-03T04:28:08;100178.69;;;1.91;74.62
49945;BME280;35838;49.134;9.212;2023-03-03T04:29:40;100174.63;;;1.96;74.49
49945;BME280;35838;49.134;9.212;2023-03-03T04:31:13;100186.81;;;2.03;74.66
49945;BME280;35838;49.134;9.212;2023-03-03T04:32:47;100179.25;;;2.06;74.94
49945;BME280;35838;49.134;9.212;2023-03-03T04:34:19;100177.66;;;2.10;74.89
49945;BME280;35838;49.134;9.212;2023-03-03T04:35:52;100175.19;;;2.13;74.65
49945;BME280;35838;49.134;9.212;2023-03-03T04:37:24;100176.16;;;2.16;74.46
49945;BME280;35838;49.134;9.212;2023-03-03T04:38:57;100177.91;;;2.17;74.58
49945;BME280;35838;49.134;9.212;2023-03-03T04:40:33;100171.03;;;2.16;74.39
49945;BME280;35838;49.134;9.212;2023-03-03T04:42:07;100171.34;;;2.26;74.34
49945;BME280;35838;49.134;9.212;2023-03-03T04:43:38;100170.53;;;2.27;74.04
49945;BME280;35838;49.134;9.212;2023-03-03T04:45:12;100168.09;;;2.30;73.99
49945;BME280;35838;49.134;9.212;2023-03-03T04:46:45;100164.56;;;2.26;74.21
49945;BME280;35838;49.134;9.212;2023-03-03T04:48:16;100170.94;;;2.38;73.93
49945;BME280;35838;49.134;9.212;2023-03-03T04:49:50;100169.03;;;2.32;73.81
49945;BME280;35838;49.134;9.212;2023-03-03T04:51:24;100164.00;;;2.35;73.73
49945;BME280;35838;49.134;9.212;2023-03-03T04:52:57;100161.13;;;2.26;73.74
49945;BME280;35838;49.134;9.212;2023-03-03T04:54:31;100165.66;;;2.33;73.81
49945;BME280;35838;49.134;9.212;2023-03-03T04:56:05;100160.38;;;2.28;73.78
49945;BME280;35838;49.134;9.212;2023-03-03T04:57:38;100166.31;;;2.27;73.79
49945;BME280;35838;49.134;9.212;2023-03-03T04:59:09;100172.41;;;2.31;73.43
49945;BME280;35838;49.134;9.212;2023-03-03T05:00:43;100171.31;;;2.24;73.56
49945;BME280;35838;49.134;9.212;2023-03-03T05:02:17;100177.22;;;2.22;73.36
49945;BME280;35838;49.134;9.212;2023-03-03T05:03:51;100179.91;;;2.00;74.34
49945;BME280;35838;49.134;9.212;2023-03-03T05:05:25;100188.13;;;1.92;74.52
49945;BME280;35838;49.134;9.212;2023-03-03T05:06:58;100189.63;;;1.62;75.34
49945;BME280;35838;49.134;9.212;2023-03-03T05:08:32;100194.56;;;1.58;75.99
49945;BME280;35838;49.134;9.212;2023-03-03T05:10:06;100193.66;;;1.55;76.53
49945;BME280;35838;49.134;9.212;2023-03-03T05:11:40;100192.19;;;1.62;76.34
49945;BME280;35838;49.134;9.212;2023-03-03T05:13:13;100188.78;;;1.62;76.32
49945;BME280;35838;49.134;9.212;2023-03-03T05:14:47;100202.81;;;1.73;75.90
49945;BME280;35838;49.134;9.212;2023-03-03T05:16:21;100197.81;;;1.76;75.76
49945;BME280;35838;49.134;9.212;2023-03-03T05:17:55;100198.41;;;1.69;75.42
49945;BME280;35838;49.134;9.212;2023-03-03T05:19:26;100199.69;;;1.58;76.32
49945;BME280;35838;49.134;9.212;2023-03-03T05:20:59;100206.59;;;1.60;76.38
49945;BME280;35838;49.134;9.212;2023-03-03T05:22:33;100207.50;;;1.61;76.44
49945;BME280;35838;49.134;9.212;2023-03-03T05:24:07;100208.47;;;1.64;76.67
49945;BME280;35838;49.134;9.212;2023-03-03T05:25:41;100208.19;;;1.56;76.36
49945;BME280;35838;49.134;9.212;2023-03-03T05:27:17;100205.72;;;1.58;76.40
49945;BME280;35838;49.134;9.212;2023-03-03T05:28:50;100209.88;;;1.56;76.17
49945;BME280;35838;49.134;9.212;2023-03-03T05:30:24;100207.31;;;1.56;76.36
49945;BME280;35838;49.134;9.212;2023-03-03T05:31:55;100206.44;;;1.55;76.33
49945;BME280;35838;49.134;9.212;2023-03-03T05:33:29;100208.19;;;1.56;76.24
49945;BME280;35838;49.134;9.212;2023-03-03T05:35:03;100204.00;;;1.59;76.42
49945;BME280;35838;49.134;9.212;2023-03-03T05:36:34;100209.25;;;1.62;76.13
49945;BME280;35838;49.134;9.212;2023-03-03T05:38:08;100214.69;;;1.71;75.72
49945;BME280;35838;49.134;9.212;2023-03-03T05:39:39;100213.81;;;1.70;74.86
49945;BME280;35838;49.134;9.212;2023-03-03T05:41:14;100218.06;;;1.70;74.74
49945;BME280;35838;49.134;9.212;2023-03-03T05:42:50;100216.84;;;1.60;74.80
49945;BME280;35838;49.134;9.212;2023-03-03T05:44:24;100214.41;;;1.63;75.44
49945;BME280;35838;49.134;9.212;2023-03-03T05:45:57;100216.16;;;1.64;75.02
49945;BME280;35838;49.134;9.212;2023-03-03T05:47:31;100215.19;;;1.61;74.84
49945;BME280;35838;49.134;9.212;2023-03-03T05:49:05;100213.84;;;1.48;75.27
49945;BME280;35838;49.134;9.212;2023-03-03T05:50:38;100216.69;;;1.33;75.37
49945;BME280;35838;49.134;9.212;2023-03-03T05:52:12;100221.44;;;1.23;76.18
49945;BME280;35838;49.134;9.212;2023-03-03T05:53:46;100225.13;;;1.30;76.28
49945;BME280;35838;49.134;9.212;2023-03-03T05:55:19;100229.00;;;1.43;76.04
49945;BME280;35838;49.134;9.212;2023-03-03T05:56:53;100224.25;;;1.52;75.36
49945;BME280;35838;49.134;9.212;2023-03-03T05:58:29;100222.31;;;1.47;75.09
49945;BME280;35838;49.134;9.212;2023-03-03T06:00:03;100226.28;;;1.38;74.94
49945;BME280;35838;49.134;9.212;2023-03-03T06:01:38;100222.31;;;1.24;75.35
49945;BME280;35838;49.134;9.212;2023-03-03T06:03:11;100226.06;;;1.32;75.78
49945;BME280;35838;49.134;9.212;2023-03-03T06:04:46;100228.88;;;1.40;75.30
49945;BME280;35838;49.134;9.212;2023-03-03T06:06:20;100230.75;;;1.44;75.38
49945;BME280;35838;49.134;9.212;2023-03-03T06:07:53;100238.63;;;1.49;75.22
49945;BME280;35838;49.134;9.212;2023-03-03T06:09:24;100234.34;;;1.49;75.13
49945;BME280;35838;49.134;9.212;2023-03-03T06:10:58;100239.47;;;1.49;75.22
49945;BME280;35838;49.134;9.212;2023-03-03T06:12:32;100233.59;;;1.52;75.23
49945;BME280;35838;49.134;9.212;2023-03-03T06:14:09;100237.41;;;1.62;74.85
49945;BME280;35838;49.134;9.212;2023-03-03T06:15:40;100234.25;;;1.69;74.45
49945;BME280;35838;49.134;9.212;2023-03-03T06:17:13;100240.22;;;1.69;74.38
49945;BME280;35838;49.134;9.212;2023-03-03T06:18:44;100242.09;;;1.74;74.01
49945;BME280;35838;49.134;9.212;2023-03-03T06:20:18;100239.56;;;1.75;73.96
49945;BME280;35838;49.134;9.212;2023-03-03T06:21:51;100241.50;;;1.81;73.86
49945;BME280;35838;49.134;9.212;2023-03-03T06:23:25;100244.00;;;1.79;73.64
49945;BME280;35838;49.134;9.212;2023-03-03T06:24:59;100240.69;;;1.82;73.61
49945;BME280;35838;49.134;9.212;2023-03-03T06:26:33;100248.16;;;1.76;73.52
49945;BME280;35838;49.134;9.212;2023-03-03T06:28:07;100248.47;;;1.62;73.99
49945;BME280;35838;49.134;9.212;2023-03-03T06:29:43;100251.63;;;1.55;74.50
49945;BME280;35838;49.134;9.212;2023-03-03T06:31:17;100253.59;;;1.62;74.31
49945;BME280;35838;49.134;9.212;2023-03-03T06:32:51;100253.91;;;1.70;74.07
49945;BME280;35838;49.134;9.212;2023-03-03T06:34:25;100260.66;;;1.68;73.86
49945;BME280;35838;49.134;9.212;2023-03-03T06:35:59;100257.28;;;1.69;73.96
49945;BME280;35838;49.134;9.212;2023-03-03T06:37:32;100256.38;;;1.68;74.09
49945;BME280;35838;49.134;9.212;2023-03-03T06:39:06;100266.69;;;1.70;74.17
49945;BME280;35838;49.134;9.212;2023-03-03T06:40:40;100269.25;;;1.70;74.28
49945;BME280;35838;49.134;9.212;2023-03-03T06:42:14;100265.28;;;1.78;73.94
49945;BME280;35838;49.134;9.212;2023-03-03T06:43:48;100270.63;;;1.84;74.11
49945;BME280;35838;49.134;9.212;2023-03-03T06:45:24;100274.72;;;1.79;74.13
49945;BME280;35838;49.134;9.212;2023-03-03T06:46:55;100274.00;;;1.83;73.93
49945;BME280;35838;49.134;9.212;2023-03-03T06:48:29;100273.06;;;1.81;74.16
49945;BME280;35838;49.134;9.212;2023-03-03T06:50:03;100265.69;;;1.89;74.11
49945;BME280;35838;49.134;9.212;2023-03-03T06:51:38;100269.28;;;1.94;73.63
49945;BME280;35838;49.134;9.212;2023-03-03T06:53:14;100267.91;;;2.02;73.82
49945;BME280;35838;49.134;9.212;2023-03-03T06:54:48;100274.47;;;1.96;73.64
49945;BME280;35838;49.134;9.212;2023-03-03T06:56:23;100275.16;;;1.92;73.58
49945;BME280;35838;49.134;9.212;2023-03-03T06:57:57;100281.44;;;2.00;73.91
49945;BME280;35838;49.134;9.212;2023-03-03T06:59:32;100277.88;;;1.96;73.77
49945;BME280;35838;49.134;9.212;2023-03-03T07:01:11;100279.69;;;1.99;73.95
49945;BME280;35838;49.134;9.212;2023-03-03T07:02:47;100278.00;;;1.99;74.44
49945;BME280;35838;49.134;9.212;2023-03-03T07:04:26;100287.63;;;2.05;74.51
49945;BME280;35838;49.134;9.212;2023-03-03T07:05:58;100284.44;;;2.12;74.26
49945;BME280;35838;49.134;9.212;2023-03-03T07:07:32;100290.50;;;2.14;73.84
49945;BME280;35838;49.134;9.212;2023-03-03T07:09:08;100293.59;;;2.06;72.70
49945;BME280;35838;49.134;9.212;2023-03-03T07:10:47;100296.69;;;1.74;73.26
49945;BME280;35838;49.134;9.212;2023-03-03T07:12:21;100286.72;;;1.59;74.13
49945;BME280;35838;49.134;9.212;2023-03-03T07:13:55;100287.03;;;1.67;74.60
49945;BME280;35838;49.134;9.212;2023-03-03T07:15:30;100285.06;;;1.82;74.70
49945;BME280;35838;49.134;9.212;2023-03-03T07:17:09;100293.53;;;1.81;74.44
49945;BME280;35838;49.134;9.212;2023-03-03T07:18:47;100295.00;;;1.97;73.97
49945;BME280;35838;49.134;9.212;2023-03-03T07:20:22;100293.75;;;2.10;73.60
49945;BME280;35838;49.134;9.212;2023-03-03T07:21:56;100295.00;;;2.20;73.59
49945;BME280;35838;49.134;9.212;2023-03-03T07:23:30;100297.09;;;2.32;73.22
49945;BME280;35838;49.134;9.212;2023-03-03T07:25:17;100299.03;;;2.38;73.21
49945;BME280;35838;49.134;9.212;2023-03-03T07:26:53;100292.16;;;2.37;72.67
49945;BME280;35838;49.134;9.212;2023-03-03T07:28:28;100301.84;;;2.45;71.92
49945;BME280;35838;49.134;9.212;2023-03-03T07:30:12;100302.97;;;2.29;71.12
49945;BME280;35838;49.134;9.212;2023-03-03T07:31:49;100307.97;;;2.25;71.11
49945;BME280;35838;49.134;9.212;2023-03-03T07:33:27;100302.91;;;2.03;72.02
49945;BME280;35838;49.134;9.212;2023-03-03T07:35:01;100305.78;;;1.88;72.50
49945;BME280;35838;49.134;9.212;2023-03-03T07:36:35;100307.22;;;2.04;72.91
49945;BME280;35838;49.134;9.212;2023-03-03T07:38:28;100307.44;;;2.11;72.38
49945;BME280;35838;49.134;9.212;2023-03-03T07:40:05;100312.63;;;2.12;72.07
49945;BME280;35838;49.134;9.212;2023-03-03T07:41:54;100309.31;;;1.92;72.87
49945;BME280;35838;49.134;9.212;2023-03-03T07:43:33;100318.75;;;1.93;73.47
49945;BME280;35838;49.134;9.212;2023-03-03T07:45:19;100310.03;;;1.65;73.30
49945;BME280;35838;49.134;9.212;2023-03-03T07:46:54;100313.94;;;1.78;73.88
49945;BME280;35838;49.134;9.212;2023-03-03T07:48:33;100316.59;;;2.04;73.77
49945;BME280;35838;49.134;9.212;2023-03-03T07:50:12;100313.97;;;2.27;72.48
49945;BME280;35838;49.134;9.212;2023-03-03T07:51:46;100319.00;;;2.24;71.22
49945;BME280;35838;49.134;9.212;2023-03-03T07:53:21;100317.91;;;2.17;71.29
49945;BME280;35838;49.134;9.212;2023-03-03T07:54:58;100316.34;;;2.21;71.46
49945;BME280;35838;49.134;9.212;2023-03-03T07:56:33;100321.03;;;2.32;70.99
49945;BME280;35838;49.134;9.212;2023-03-03T07:58:19;100316.19;;;2.40;70.69
49945;BME280;35838;49.134;9.212;2023-03-03T07:59:54;100318.34;;;2.54;70.57
49945;BME280;35838;49.134;9.212;2023-03-03T08:01:36;100317.03;;;2.65;69.29
49945;BME280;35838;49.134;9.212;2023-03-03T08:03:13;100316.69;;;2.80;69.23
49945;BME280;35838;49.134;9.212;2023-03-03T08:04:50;100313.09;;;3.01;68.71
49945;BME280;35838;49.134;9.212;2023-03-03T08:06:33;100308.66;;;3.21;68.33
49945;BME280;35838;49.134;9.212;2023-03-03T08:08:12;100319.06;;;3.25;67.05
49945;BME280;35838;49.134;9.212;2023-03-03T08:09:47;100315.59;;;3.25;67.08
49945;BME280;35838;49.134;9.212;2023-03-03T08:11:23;100309.97;;;3.09;65.98
49945;BME280;35838;49.134;9.212;2023-03-03T08:12:57;100310.44;;;2.97;66.54
49945;BME280;35838;49.134;9.212;2023-03-03T08:14:34;100308.84;;;3.01;66.58
49945;BME280;35838;49.134;9.212;2023-03-03T08:18:00;100319.31;;;3.07;65.95
49945;BME280;35838;49.134;9.212;2023-03-03T08:19:34;100310.09;;;3.12;66.20
49945;BME280;35838;49.134;9.212;2023-03-03T08:21:11;100312.88;;;3.20;66.38
49945;BME280;35838;49.134;9.212;2023-03-03T08:22:45;100313.78;;;3.21;65.70
49945;BME280;35838;49.134;9.212;2023-03-03T08:24:19;100320.84;;;3.28;65.96
49945;BME280;35838;49.134;9.212;2023-03-03T08:25:52;100313.75;;;3.48;65.59
49945;BME280;35838;49.134;9.212;2023-03-03T08:27:26;100317.59;;;3.61;65.13
49945;BME280;35838;49.134;9.212;2023-03-03T08:29:00;100322.66;;;3.32;64.32
49945;BME280;35838;49.134;9.212;2023-03-03T08:30:33;100322.19;;;3.44;64.93
49945;BME280;35838;49.134;9.212;2023-03-03T08:32:07;100321.72;;;3.56;65.07
49945;BME280;35838;49.134;9.212;2023-03-03T08:33:40;100323.81;;;3.69;65.37
49945;BME280;35838;49.134;9.212;2023-03-03T08:35:14;100320.09;;;3.88;66.47
49945;BME280;35838;49.134;9.212;2023-03-03T08:36:50;100317.25;;;4.08;65.89
49945;BME280;35838;49.134;9.212;2023-03-03T08:38:26;100317.59;;;3.90;63.29
49945;BME280;35838;49.134;9.212;2023-03-03T08:40:00;100320.63;;;4.05;63.64
49945;BME280;35838;49.134;9.212;2023-03-03T08:41:33;100324.41;;;4.18;64.05
49945;BME280;35838;49.134;9.212;2023-03-03T08:43:08;100322.81;;;4.23;63.17
49945;BME280;35838;49.134;9.212;2023-03-03T08:44:46;100323.03;;;4.30;62.62
49945;BME280;35838;49.134;9.212;2023-03-03T08:46:20;100329.13;;;4.33;62.39
49945;BME280;35838;49.134;9.212;2023-03-03T08:47:53;100330.94;;;4.37;62.32
49945;BME280;35838;49.134;9.212;2023-03-03T08:49:29;100330.53;;;4.54;63.21
49945;BME280;35838;49.134;9.212;2023-03-03T08:51:03;100336.72;;;4.30;62.26
49945;BME280;35838;49.134;9.212;2023-03-03T08:52:39;100324.03;;;4.36;62.01
49945;BME280;35838;49.134;9.212;2023-03-03T08:54:10;100330.94;;;4.37;61.79
49945;BME280;35838;49.134;9.212;2023-03-03T08:55:44;100330.22;;;4.43;62.44
49945;BME280;35838;49.134;9.212;2023-03-03T08:57:18;100329.63;;;4.52;62.16
49945;BME280;35838;49.134;9.212;2023-03-03T08:58:51;100329.69;;;4.55;61.62
49945;BME280;35838;49.134;9.212;2023-03-03T09:00:25;100329.44;;;4.46;61.61
49945;BME280;35838;49.134;9.212;2023-03-03T09:01:59;100331.78;;;4.68;62.07
49945;BME280;35838;49.134;9.212;2023-03-03T09:03:32;100326.72;;;4.72;61.27
49945;BME280;35838;49.134;9.212;2023-03-03T09:05:06;100325.53;;;4.92;61.04
49945;BME280;35838;49.134;9.212;2023-03-03T09:06:40;100326.66;;;5.02;61.05
49945;BME280;35838;49.134;9.212;2023-03-03T09:08:16;100324.94;;;5.02;60.22
49945;BME280;35838;49.134;9.212;2023-03-03T09:09:50;100327.41;;;4.99;59.88
49945;BME280;35838;49.134;9.212;2023-03-03T09:11:24;100327.97;;;5.21;60.71
49945;BME280;35838;49.134;9.212;2023-03-03T09:12:59;100330.16;;;5.41;61.35
49945;BME280;35838;49.134;9.212;2023-03-03T09:14:34;100323.50;;;5.49;60.93
49945;BME280;35838;49.134;9.212;2023-03-03T09:16:10;100322.88;;;5.59;59.78
49945;BME280;35838;49.134;9.212;2023-03-03T09:17:45;100318.06;;;5.38;58.26
49945;BME280;35838;49.134;9.212;2023-03-03T09:19:22;100330.16;;;5.41;59.07
49945;BME280;35838;49.134;9.212;2023-03-03T09:20:56;100328.19;;;5.30;58.32
49945;BME280;35838;49.134;9.212;2023-03-03T09:22:30;100336.78;;;5.31;58.10
49945;BME280;35838;49.134;9.212;2023-03-03T09:24:14;100340.06;;;5.25;58.49
49945;BME280;35838;49.134;9.212;2023-03-03T09:25:51;100339.91;;;5.19;58.39
49945;BME280;35838;49.134;9.212;2023-03-03T09:27:26;100335.72;;;5.23;58.57
49945;BME280;35838;49.134;9.212;2023-03-03T09:29:06;100337.56;;;5.27;58.75
49945;BME280;35838;49.134;9.212;2023-03-03T09:30:43;100340.47;;;5.41;58.92
49945;BME280;35838;49.134;9.212;2023-03-03T09:32:28;100336.38;;;5.51;58.43
49945;BME280;35838;49.134;9.212;2023-03-03T09:34:02;100334.25;;;5.69;59.00
49945;BME280;35838;49.134;9.212;2023-03-03T09:35:44;100339.06;;;5.55;58.12
49945;BME280;35838;49.134;9.212;2023-03-03T09:37:20;100338.94;;;5.49;58.29
49945;BME280;35838;49.134;9.212;2023-03-03T09:38:54;100338.34;;;5.61;59.00
49945;BME280;35838;49.134;9.212;2023-03-03T09:40:37;100339.72;;;5.85;61.20
49945;BME280;35838;49.134;9.212;2023-03-03T09:42:18;100333.38;;;6.07;59.99
49945;BME280;35838;49.134;9.212;2023-03-03T09:44:06;100332.00;;;6.24;59.95
49945;BME280;35838;49.134;9.212;2023-03-03T09:45:49;100340.16;;;6.03;57.87
49945;BME280;35838;49.134;9.212;2023-03-03T09:47:31;100340.97;;;6.01;56.87
49945;BME280;35838;49.134;9.212;2023-03-03T09:49:10;100342.09;;;6.12;57.61
49945;BME280;35838;49.134;9.212;2023-03-03T09:50:53;100338.19;;;6.33;57.75
49945;BME280;35838;49.134;9.212;2023-03-03T09:52:32;100343.91;;;6.61;58.55
49945;BME280;35838;49.134;9.212;2023-03-03T09:54:16;100342.50;;;6.78;57.07
49945;BME280;35838;49.134;9.212;2023-03-03T09:55:58;100342.53;;;6.80;56.39
49945;BME280;35838;49.134;9.212;2023-03-03T09:57:41;100336.78;;;6.49;55.57
49945;BME280;35838;49.134;9.212;2023-03-03T09:59:25;100336.53;;;6.35;56.04
49945;BME280;35838;49.134;9.212;2023-03-03T10:01:05;100335.31;;;6.19;56.15
49945;BME280;35838;49.134;9.212;2023-03-03T10:02:46;100342.78;;;6.46;57.02
49945;BME280;35838;49.134;9.212;2023-03-03T10:04:30;100343.25;;;6.71;58.11
49945;BME280;35838;49.134;9.212;2023-03-03T10:06:13;100337.09;;;6.64;56.00
49945;BME280;35838;49.134;9.212;2023-03-03T10:07:53;100334.47;;;6.63;55.06
49945;BME280;35838;49.134;9.212;2023-03-03T10:09:35;100333.09;;;6.80;56.68
49945;BME280;35838;49.134;9.212;2023-03-03T10:11:16;100329.94;;;6.97;56.35
49945;BME280;35838;49.134;9.212;2023-03-03T10:12:54;100328.50;;;7.14;56.51
49945;BME280;35838;49.134;9.212;2023-03-03T10:14:45;100326.78;;;7.13;54.24
49945;BME280;35838;49.134;9.212;2023-03-03T10:16:29;100329.09;;;6.99;54.24
49945;BME280;35838;49.134;9.212;2023-03-03T10:18:16;100324.88;;;7.03;54.78
49945;BME280;35838;49.134;9.212;2023-03-03T10:19:59;100323.09;;;6.99;55.00
49945;BME280;35838;49.134;9.212;2023-03-03T10:21:35;100328.34;;;7.05;54.15
49945;BME280;35838;49.134;9.212;2023-03-03T10:23:15;100322.44;;;7.12;54.94
49945;BME280;35838;49.134;9.212;2023-03-03T10:24:54;100327.59;;;7.11;54.61
49945;BME280;35838;49.134;9.212;2023-03-03T10:26:41;100323.91;;;6.96;53.65
49945;BME280;35838;49.134;9.212;2023-03-03T10:30:16;100323.88;;;6.95;55.07
49945;BME280;35838;49.134;9.212;2023-03-03T10:31:58;100326.28;;;6.85;54.96
49945;BME280;35838;49.134;9.212;2023-03-03T10:33:36;100325.31;;;6.79;54.79
49945;BME280;35838;49.134;9.212;2023-03-03T10:35:15;100329.97;;;6.52;55.50
49945;BME280;35838;49.134;9.212;2023-03-03T10:36:52;100324.28;;;6.70;55.59
49945;BME280;35838;49.134;9.212;2023-03-03T10:38:33;100325.19;;;6.71;53.95
49945;BME280;35838;49.134;9.212;2023-03-03T10:40:12;100321.34;;;6.98;55.70
49945;BME280;35838;49.134;9.212;2023-03-03T10:41:55;100323.28;;;7.11;54.92
49945;BME280;35838;49.134;9.212;2023-03-03T10:45:30;100334.44;;;7.10;54.65
49945;BME280;35838;49.134;9.212;2023-03-03T10:47:14;100331.31;;;7.28;54.68
49945;BME280;35838;49.134;9.212;2023-03-03T10:49:13;100332.44;;;7.44;54.03
49945;BME280;35838;49.134;9.212;2023-03-03T10:50:53;100334.06;;;7.37;53.78
49945;BME280;35838;49.134;9.212;2023-03-03T10:52:32;100340.06;;;7.38;53.26
49945;BME280;35838;49.134;9.212;2023-03-03T10:54:14;100337.78;;;7.57;53.37
49945;BME280;35838;49.134;9.212;2023-03-03T10:55:53;100327.59;;;7.67;54.17
49945;BME280;35838;49.134;9.212;2023-03-03T10:57:33;100337.19;;;7.75;53.15
49945;BME280;35838;49.134;9.212;2023-03-03T10:59:13;100332.31;;;7.95;54.39
49945;BME280;35838;49.134;9.212;2023-03-03T11:00:53;100328.06;;;8.00;52.40
49945;BME280;35838;49.134;9.212;2023-03-03T11:02:33;100329.97;;;8.13;52.35
49945;BME280;35838;49.134;9.212;2023-03-03T11:04:22;100324.75;;;8.12;51.56
49945;BME280;35838;49.134;9.212;2023-03-03T11:05:58;100328.28;;;8.19;51.38
49945;BME280;35838;49.134;9.212;2023-03-03T11:07:34;100325.56;;;8.08;51.29